Adams, Oklahoma
Current Conditions -  °F | °C
As of 4:35 AM on Sunday 26 Oct 2014 (Local Time) from KLBL Reporting Station
Clear Clear  
Wind Chill: 14°   Ceiling: Unl
Heat Index: 14°   Visibility: 10mi
Dew Point:   Wind: 13mph
Humidity: 67%   Direction: 190°S
Pressure: 29.86"   Gusts: NA
Location:  36.76°N, 101.08°W
Report Text: KLBL 260935Z AUTO 19011KT 10SM CLR 14/08 A2986 RMK AO1
Loading
Personal Weather Stations






























Interactive Weather Map
Tropical Storm Tracking
New forecast layout! Learn more

10-Day Weather Forecast

Advertisements
Track Severe Weather on mobile